Time;durP1;ratioP1;P1;durP2;ratioP2;P2;SDS_P1;SDS_P2;PMS_P1;PMS_P2;Temp;Humidity;BMP_temperature;BMP_pressure;BME280_temperature;BME280_humidity;BME280_pressure;Samples;Min_cycle;Max_cycle;Signal;HPM_P1;HPM_P2
2023/10/09 00:01:58;;;;;;;3.70;1.30;;;;;;;;;;10293635;28;20079;-63
2023/10/09 00:06:59;;;;;;;4.70;1.58;;;;;;;;;;10292890;28;20107;-63
2023/10/09 00:11:58;;;;;;;3.30;1.58;;;;;;;;;;10289931;28;20068;-63
2023/10/09 00:17:05;;;;;;;4.13;1.63;;;;;;;;;;10291846;28;20092;-63
2023/10/09 00:22:10;;;;;;;2.15;1.60;;;;;;;;;;10290848;28;20357;-63
2023/10/09 00:27:12;;;;;;;3.03;1.88;;;;;;;;;;10292455;28;20091;-63
2023/10/09 00:32:15;;;;;;;5.60;1.70;;;;;;;;;;10292327;28;20091;-63
2023/10/09 00:37:17;;;;;;;1.95;1.73;;;;;;;;;;10288232;28;20076;-64
2023/10/09 00:42:25;;;;;;;1.77;1.67;;;;;;;;;;10292994;28;20069;-64
2023/10/09 00:47:26;;;;;;;2.53;1.58;;;;;;;;;;10290197;28;20091;-64
2023/10/09 00:52:31;;;;;;;2.40;1.40;;;;;;;;;;10290643;28;20522;-64
2023/10/09 00:57:31;;;;;;;2.28;1.70;;;;;;;;;;10289200;28;20087;-64
2023/10/09 01:02:36;;;;;;;2.53;1.70;;;;;;;;;;10290369;28;20515;-64
2023/10/09 01:07:36;;;;;;;1.75;1.40;;;;;;;;;;10289729;28;20135;-63
2023/10/09 01:12:42;;;;;;;2.63;1.60;;;;;;;;;;10289865;28;20084;-64
2023/10/09 01:17:45;;;;;;;1.92;1.48;;;;;;;;;;10289203;28;20060;-64
2023/10/09 01:22:45;;;;;;;2.83;1.67;;;;;;;;;;10288658;28;20068;-64
2023/10/09 01:27:45;;;;;;;1.88;1.50;;;;;;;;;;10287445;28;20056;-63
2023/10/09 01:32:45;;;;;;;4.97;2.03;;;;;;;;;;10292555;28;20077;-64
2023/10/09 01:37:43;;;;;;;6.13;1.63;;;;;;;;;;10297949;28;20072;-64
2023/10/09 01:42:45;;;;;;;3.65;2.03;;;;;;;;;;10295455;28;20068;-64
2023/10/09 01:47:51;;;;;;;1.73;1.58;;;;;;;;;;10294982;28;20064;-64
2023/10/09 01:52:51;;;;;;;2.58;1.67;;;;;;;;;;10297398;28;20080;-63
2023/10/09 01:57:50;;;;;;;3.78;1.73;;;;;;;;;;10298640;28;20064;-63
2023/10/09 02:02:50;;;;;;;1.63;1.40;;;;;;;;;;10303951;28;20068;-63
2023/10/09 02:07:52;;;;;;;2.03;1.58;;;;;;;;;;10293327;28;20071;-63
2023/10/09 02:12:57;;;;;;;1.67;1.55;;;;;;;;;;10292628;28;20324;-63
2023/10/09 02:18:01;;;;;;;3.10;2.15;;;;;;;;;;10308611;28;20072;-63
2023/10/09 02:22:59;;;;;;;8.10;1.90;;;;;;;;;;10296458;28;20069;-63
2023/10/09 02:27:59;;;;;;;1.30;1.10;;;;;;;;;;10296387;28;20068;-63
2023/10/09 02:33:06;;;;;;;1.52;1.30;;;;;;;;;;10293050;28;20064;-63
2023/10/09 02:38:09;;;;;;;5.57;2.33;;;;;;;;;;10296479;28;20076;-63
2023/10/09 02:43:12;;;;;;;5.72;2.47;;;;;;;;;;10277615;28;20072;-63
2023/10/09 02:48:13;;;;;;;5.82;1.83;;;;;;;;;;10295580;28;20068;-63
2023/10/09 02:53:18;;;;;;;1.85;1.45;;;;;;;;;;10294187;28;20072;-63
2023/10/09 02:58:20;;;;;;;2.42;1.30;;;;;;;;;;10295841;28;20478;-63
2023/10/09 03:03:20;;;;;;;2.53;1.55;;;;;;;;;;10294288;28;20482;-63
2023/10/09 03:08:19;;;;;;;1.83;1.73;;;;;;;;;;10294928;28;20470;-63
2023/10/09 03:13:19;;;;;;;2.67;1.83;;;;;;;;;;10299975;28;20049;-63
2023/10/09 03:18:20;;;;;;;3.72;1.77;;;;;;;;;;10294277;28;20056;-63
2023/10/09 03:23:18;;;;;;;3.53;1.67;;;;;;;;;;10294604;28;20068;-63
2023/10/09 03:28:17;;;;;;;2.90;1.98;;;;;;;;;;10290022;28;20096;-64
2023/10/09 03:33:15;;;;;;;4.15;2.10;;;;;;;;;;10289655;28;20087;-63
2023/10/09 03:38:18;;;;;;;2.17;1.48;;;;;;;;;;10289964;28;20080;-64
2023/10/09 03:43:16;;;;;;;3.55;2.35;;;;;;;;;;10289930;28;20065;-63
2023/10/09 03:48:21;;;;;;;2.20;1.40;;;;;;;;;;10291489;28;20079;-63
2023/10/09 03:53:21;;;;;;;2.22;1.52;;;;;;;;;;10291651;28;20071;-64
2023/10/09 03:58:19;;;;;;;2.60;1.60;;;;;;;;;;10292009;28;20527;-63
2023/10/09 04:03:17;;;;;;;2.05;1.55;;;;;;;;;;10290706;28;20090;-63
2023/10/09 04:08:28;;;;;;;6.75;1.90;;;;;;;;;;10282724;28;20593;-64
2023/10/09 04:13:33;;;;;;;3.08;1.92;;;;;;;;;;10288472;28;20673;-64
2023/10/09 04:18:33;;;;;;;2.58;1.92;;;;;;;;;;10291829;28;20065;-64
2023/10/09 04:23:36;;;;;;;4.55;2.28;;;;;;;;;;10289842;28;20094;-64
2023/10/09 04:28:36;;;;;;;2.33;1.90;;;;;;;;;;10282533;28;20068;-64
2023/10/09 04:33:42;;;;;;;5.38;2.30;;;;;;;;;;10281738;28;20071;-63
2023/10/09 04:38:52;;;;;;;6.28;2.88;;;;;;;;;;10286666;28;20067;-64
2023/10/09 04:43:52;;;;;;;2.88;1.50;;;;;;;;;;10285139;28;20667;-64
2023/10/09 04:49:15;;;;;;;4.93;2.10;;;;;;;;;;10285509;28;20060;-64
2023/10/09 04:54:13;;;;;;;3.33;1.52;;;;;;;;;;10288369;28;20502;-63
2023/10/09 04:59:18;;;;;;;2.88;1.85;;;;;;;;;;10289558;28;20075;-63
2023/10/09 05:04:39;;;;;;;;;;;;;;;;;;10280381;28;20087;-64
2023/10/09 05:09:55;;;;;;;3.58;2.10;;;;;;;;;;10284414;28;20043;-63
2023/10/09 05:15:08;;;;;;;4.80;1.55;;;;;;;;;;10286992;28;20076;-63
2023/10/09 05:25:53;;;;;;;7.32;1.70;;;;;;;;;;10289087;28;20541;-63
2023/10/09 05:30:44;;;;;;;2.65;2.17;;;;;;;;;;10289140;28;20147;-64
2023/10/09 05:36:05;;;;;;;4.65;2.22;;;;;;;;;;10288374;28;20132;-64
2023/10/09 05:41:45;;;;;;;5.43;1.45;;;;;;;;;;10289173;28;20065;-64
2023/10/09 05:46:35;;;;;;;4.72;2.20;;;;;;;;;;10289839;28;20073;-63
2023/10/09 05:51:42;;;;;;;4.65;2.45;;;;;;;;;;10285982;28;20467;-63
2023/10/09 06:07:14;;;;;;;10.48;2.10;;;;;;;;;;10269782;28;20083;-63
2023/10/09 06:17:43;;;;;;;17.05;2.47;;;;;;;;;;10286991;28;20075;-63
2023/10/09 06:23:15;;;;;;;3.53;1.60;;;;;;;;;;10288238;28;20071;-64
2023/10/09 06:28:14;;;;;;;4.55;1.83;;;;;;;;;;10295714;28;20074;-63
2023/10/09 06:33:29;;;;;;;4.53;2.10;;;;;;;;;;10296951;28;20080;-64
2023/10/09 06:38:51;;;;;;;3.67;2.00;;;;;;;;;;10281221;28;20060;-63
2023/10/09 06:43:53;;;;;;;2.13;1.80;;;;;;;;;;10287404;28;20076;-62
2023/10/09 06:48:59;;;;;;;4.25;1.90;;;;;;;;;;10290285;28;20067;-63
2023/10/09 06:54:04;;;;;;;5.82;1.73;;;;;;;;;;10288500;28;20079;-62
2023/10/09 06:59:14;;;;;;;7.95;2.53;;;;;;;;;;10280565;28;20072;-63
2023/10/09 07:04:45;;;;;;;3.08;1.73;;;;;;;;;;10270275;28;20085;-63
2023/10/09 07:09:43;;;;;;;4.05;1.50;;;;;;;;;;10286147;28;20065;-63
2023/10/09 07:20:15;;;;;;;3.38;1.40;;;;;;;;;;10291555;28;20080;-63
2023/10/09 07:25:27;;;;;;;7.32;1.85;;;;;;;;;;10289140;28;20086;-64
2023/10/09 07:30:36;;;;;;;7.55;2.33;;;;;;;;;;10291473;28;20064;-63
2023/10/09 07:35:47;;;;;;;7.43;1.60;;;;;;;;;;10292919;28;20068;-64
2023/10/09 07:40:55;;;;;;;5.28;1.83;;;;;;;;;;10293597;28;20074;-64
2023/10/09 07:51:13;;;;;;;3.70;1.30;;;;;;;;;;10294788;28;20068;-63
2023/10/09 07:56:13;;;;;;;4.60;1.40;;;;;;;;;;10290930;28;20068;-62
2023/10/09 08:01:22;;;;;;;5.25;1.58;;;;;;;;;;10291067;28;20069;-62
2023/10/09 08:06:38;;;;;;;4.35;1.52;;;;;;;;;;10292635;28;20072;-62
2023/10/09 08:17:11;;;;;;;3.08;1.70;;;;;;;;;;10291273;28;20101;-62
2023/10/09 08:27:55;;;;;;;2.60;1.40;;;;;;;;;;10291783;28;20472;-62
2023/10/09 08:33:02;;;;;;;8.43;2.42;;;;;;;;;;10291266;28;20589;-62
2023/10/09 08:38:07;;;;;;;7.38;1.90;;;;;;;;;;10291642;28;20064;-63
2023/10/09 08:43:10;;;;;;;1.83;1.50;;;;;;;;;;10289717;28;20083;-62
2023/10/09 08:48:09;;;;;;;4.40;1.30;;;;;;;;;;10288716;28;20076;-63
2023/10/09 08:53:12;;;;;;;3.78;1.52;;;;;;;;;;10292121;28;20080;-62
2023/10/09 08:58:20;;;;;;;5.43;1.67;;;;;;;;;;10290808;28;20064;-62
2023/10/09 09:03:22;;;;;;;7.60;1.27;;;;;;;;;;10291439;28;20072;-62
2023/10/09 09:08:25;;;;;;;2.35;1.70;;;;;;;;;;10288441;28;20075;-63
2023/10/09 09:13:24;;;;;;;3.05;1.83;;;;;;;;;;10287283;28;20463;-63
2023/10/09 09:18:22;;;;;;;7.63;1.75;;;;;;;;;;10291449;28;20078;-62
2023/10/09 09:23:23;;;;;;;4.38;1.80;;;;;;;;;;10290399;28;20080;-62
2023/10/09 09:28:23;;;;;;;1.90;1.50;;;;;;;;;;10289245;28;20513;-62
2023/10/09 09:33:38;;;;;;;3.17;1.55;;;;;;;;;;10290466;28;20080;-62
2023/10/09 09:38:48;;;;;;;3.90;1.58;;;;;;;;;;10288710;28;20080;-62
2023/10/09 09:43:48;;;;;;;7.18;2.20;;;;;;;;;;10290267;28;20072;-62
2023/10/09 09:48:48;;;;;;;3.80;2.30;;;;;;;;;;10287600;28;20079;-62
2023/10/09 09:53:49;;;;;;;6.03;1.50;;;;;;;;;;10290756;28;20190;-62
2023/10/09 09:58:53;;;;;;;1.30;1.20;;;;;;;;;;10297713;28;20425;-62
2023/10/09 10:03:56;;;;;;;8.02;1.67;;;;;;;;;;10296681;28;20091;-63
2023/10/09 10:08:54;;;;;;;3.30;1.65;;;;;;;;;;10281284;28;20135;-62
2023/10/09 10:13:59;;;;;;;3.33;1.40;;;;;;;;;;10285134;28;20506;-63
2023/10/09 10:19:06;;;;;;;2.72;1.98;;;;;;;;;;10290814;28;20079;-63
2023/10/09 10:24:06;;;;;;;2.40;1.80;;;;;;;;;;10292751;28;20509;-63
2023/10/09 10:29:26;;;;;;;1.70;1.60;;;;;;;;;;10293893;28;20495;-63
2023/10/09 10:34:25;;;;;;;1.67;1.42;;;;;;;;;;10296456;28;20506;-62
2023/10/09 10:39:42;;;;;;;3.60;2.05;;;;;;;;;;10295752;28;20082;-62
2023/10/09 10:44:44;;;;;;;8.23;2.00;;;;;;;;;;10294109;28;20502;-64
2023/10/09 10:49:44;;;;;;;3.35;1.33;;;;;;;;;;10294865;28;20467;-64
2023/10/09 10:55:05;;;;;;;2.67;1.98;;;;;;;;;;10293580;28;20525;-64
2023/10/09 11:01:00;;;;;;;3.60;1.90;;;;;;;;;;10292894;28;20519;-64
2023/10/09 11:05:39;;;;;;;3.88;1.48;;;;;;;;;;10295134;28;20077;-64
2023/10/09 11:10:49;;;;;;;2.78;1.58;;;;;;;;;;10293892;28;20068;-62
2023/10/09 11:15:57;;;;;;;2.08;1.70;;;;;;;;;;10292407;28;20083;-63
2023/10/09 11:21:22;;;;;;;6.20;1.95;;;;;;;;;;10294567;28;20083;-63
2023/10/09 11:26:25;;;;;;;2.15;1.58;;;;;;;;;;10294977;28;20505;-63
2023/10/09 11:31:25;;;;;;;4.07;1.60;;;;;;;;;;10292263;28;20068;-63
2023/10/09 11:36:31;;;;;;;6.78;1.95;;;;;;;;;;10292465;28;20076;-63
2023/10/09 11:41:34;;;;;;;2.83;1.50;;;;;;;;;;10292987;28;20320;-64
2023/10/09 11:52:34;;;;;;;4.78;1.65;;;;;;;;;;10287738;28;20075;-63
2023/10/09 11:57:05;;;;;;;2.70;1.70;;;;;;;;;;10293781;28;20071;-63
2023/10/09 12:02:05;;;;;;;4.57;1.73;;;;;;;;;;10290482;28;20080;-63
2023/10/09 12:07:07;;;;;;;2.38;1.73;;;;;;;;;;10292610;28;20095;-63
2023/10/09 12:12:07;;;;;;;4.00;1.95;;;;;;;;;;10292764;28;20072;-63
2023/10/09 12:17:07;;;;;;;4.00;1.55;;;;;;;;;;10291148;28;20080;-63
2023/10/09 12:22:06;;;;;;;5.57;2.42;;;;;;;;;;10292481;28;20095;-64
2023/10/09 12:27:09;;;;;;;4.18;1.77;;;;;;;;;;10290915;28;20107;-64
2023/10/09 12:32:10;;;;;;;3.35;2.10;;;;;;;;;;10289803;28;20549;-64
2023/10/09 12:37:09;;;;;;;3.33;2.08;;;;;;;;;;10293219;28;20498;-63
2023/10/09 12:42:07;;;;;;;6.47;1.75;;;;;;;;;;10290251;28;20079;-63
2023/10/09 12:47:07;;;;;;;4.40;1.90;;;;;;;;;;10288889;28;20075;-63
2023/10/09 12:52:15;;;;;;;8.10;1.60;;;;;;;;;;10290143;28;20114;-64
2023/10/09 12:57:14;;;;;;;6.07;2.30;;;;;;;;;;10291452;28;20048;-64
2023/10/09 13:02:27;;;;;;;3.40;2.00;;;;;;;;;;10289292;28;20072;-64
2023/10/09 13:07:28;;;;;;;3.97;2.20;;;;;;;;;;10291953;28;20497;-64
2023/10/09 13:12:28;;;;;;;3.33;1.92;;;;;;;;;;10291358;28;20068;-64
2023/10/09 13:17:27;;;;;;;6.15;1.90;;;;;;;;;;10291483;28;20095;-64
2023/10/09 13:22:27;;;;;;;6.03;2.17;;;;;;;;;;10291512;28;20072;-64
2023/10/09 13:27:33;;;;;;;5.95;1.85;;;;;;;;;;10291457;28;20088;-64
2023/10/09 13:32:35;;;;;;;3.88;1.92;;;;;;;;;;10297507;28;20072;-64
2023/10/09 13:37:36;;;;;;;8.13;2.42;;;;;;;;;;10299416;28;20087;-64
2023/10/09 13:42:37;;;;;;;3.28;2.00;;;;;;;;;;10298370;28;20076;-64
2023/10/09 13:47:35;;;;;;;4.28;2.67;;;;;;;;;;10296648;28;20079;-64
2023/10/09 13:52:39;;;;;;;5.53;2.40;;;;;;;;;;10299051;28;20073;-62
2023/10/09 13:57:43;;;;;;;10.35;3.25;;;;;;;;;;10295889;28;20072;-63
2023/10/09 14:02:41;;;;;;;2.85;2.58;;;;;;;;;;10297565;28;20520;-63
2023/10/09 14:07:40;;;;;;;4.00;2.83;;;;;;;;;;10293540;28;20459;-63
2023/10/09 14:12:42;;;;;;;8.60;3.05;;;;;;;;;;10295190;28;20492;-63
2023/10/09 14:17:42;;;;;;;7.30;2.17;;;;;;;;;;10297767;28;20570;-63
2023/10/09 14:22:41;;;;;;;9.05;3.17;;;;;;;;;;10288701;28;20073;-63
2023/10/09 14:27:40;;;;;;;12.85;3.53;;;;;;;;;;10272056;28;20075;-65
2023/10/09 14:32:44;;;;;;;9.70;2.75;;;;;;;;;;10275886;28;20100;-63
2023/10/09 14:37:42;;;;;;;3.70;3.00;;;;;;;;;;10283974;28;20069;-63
2023/10/09 14:42:44;;;;;;;7.43;2.80;;;;;;;;;;10273244;28;20072;-64
2023/10/09 14:47:42;;;;;;;7.75;3.17;;;;;;;;;;10283185;28;20078;-63
2023/10/09 14:52:40;;;;;;;8.43;3.10;;;;;;;;;;10276242;28;20148;-64
2023/10/09 14:57:39;;;;;;;13.35;3.50;;;;;;;;;;10286348;28;20080;-64
2023/10/09 15:02:38;;;;;;;6.47;3.17;;;;;;;;;;10289835;28;20064;-64
2023/10/09 15:07:38;;;;;;;14.05;4.35;;;;;;;;;;10292698;28;20072;-64
2023/10/09 15:12:42;;;;;;;7.50;3.10;;;;;;;;;;10288629;28;20715;-64
2023/10/09 15:17:43;;;;;;;13.77;3.90;;;;;;;;;;10292929;28;20076;-65
2023/10/09 15:22:42;;;;;;;11.48;3.90;;;;;;;;;;10294008;28;20075;-65
2023/10/09 15:27:40;;;;;;;11.07;3.30;;;;;;;;;;10295495;28;20509;-65
2023/10/09 15:32:39;;;;;;;10.77;3.72;;;;;;;;;;10292335;28;20080;-65
2023/10/09 15:37:40;;;;;;;24.23;4.22;;;;;;;;;;10293698;28;20084;-65
2023/10/09 15:42:39;;;;;;;19.85;5.95;;;;;;;;;;10290644;28;20080;-64
2023/10/09 15:47:37;;;;;;;11.70;7.93;;;;;;;;;;10293109;28;20068;-64
2023/10/09 15:52:37;;;;;;;13.65;10.10;;;;;;;;;;10291661;28;20506;-64
2023/10/09 15:57:37;;;;;;;22.23;8.32;;;;;;;;;;10292770;28;20098;-64
2023/10/09 16:02:35;;;;;;;6.45;5.15;;;;;;;;;;10291036;28;20071;-64
2023/10/09 16:07:34;;;;;;;8.27;4.45;;;;;;;;;;10291449;28;20081;-64
2023/10/09 16:12:33;;;;;;;4.97;3.60;;;;;;;;;;10291040;28;20068;-64
2023/10/09 16:17:33;;;;;;;7.70;5.05;;;;;;;;;;10292350;28;20072;-63
2023/10/09 16:22:32;;;;;;;12.25;4.55;;;;;;;;;;10292687;28;20106;-63
2023/10/09 16:27:31;;;;;;;14.57;4.25;;;;;;;;;;10291709;28;20499;-63
2023/10/09 16:32:31;;;;;;;7.75;3.40;;;;;;;;;;10288765;28;20467;-64
2023/10/09 16:37:34;;;;;;;5.82;4.20;;;;;;;;;;10290044;28;20091;-63
2023/10/09 16:42:35;;;;;;;13.05;5.25;;;;;;;;;;10290561;28;20072;-64
2023/10/09 16:47:36;;;;;;;8.07;4.60;;;;;;;;;;10289507;28;20084;-64
2023/10/09 16:52:37;;;;;;;11.57;5.75;;;;;;;;;;10290986;28;20081;-64
2023/10/09 16:57:39;;;;;;;14.18;5.68;;;;;;;;;;10289506;28;20075;-64
2023/10/09 17:02:38;;;;;;;14.13;4.72;;;;;;;;;;10290282;28;20486;-64
2023/10/09 17:07:39;;;;;;;18.25;4.35;;;;;;;;;;10290948;28;20069;-64
2023/10/09 17:12:39;;;;;;;9.45;3.90;;;;;;;;;;10289346;28;20074;-65
2023/10/09 17:17:38;;;;;;;26.00;4.43;;;;;;;;;;10289878;28;20090;-64
2023/10/09 17:22:38;;;;;;;9.32;3.60;;;;;;;;;;10289557;28;20368;-63
2023/10/09 17:27:36;;;;;;;13.30;3.22;;;;;;;;;;10287892;28;20103;-64
2023/10/09 17:32:35;;;;;;;4.78;2.90;;;;;;;;;;10286836;28;20068;-63
2023/10/09 17:37:34;;;;;;;8.73;2.90;;;;;;;;;;10290029;28;20517;-63
2023/10/09 17:42:33;;;;;;;7.90;2.50;;;;;;;;;;10291159;28;20095;-63
2023/10/09 17:47:34;;;;;;;4.30;2.50;;;;;;;;;;10290211;28;20072;-63
2023/10/09 17:52:34;;;;;;;6.00;2.65;;;;;;;;;;10289827;28;20104;-63
2023/10/09 17:57:34;;;;;;;5.78;2.92;;;;;;;;;;10290262;28;20471;-64
2023/10/09 18:02:34;;;;;;;4.97;3.20;;;;;;;;;;10288846;28;20079;-64
2023/10/09 18:07:34;;;;;;;6.53;2.90;;;;;;;;;;10286808;28;20083;-63
2023/10/09 18:12:34;;;;;;;6.25;2.83;;;;;;;;;;10287195;28;20475;-63
2023/10/09 18:17:35;;;;;;;9.02;3.20;;;;;;;;;;10294650;28;20072;-63
2023/10/09 18:22:35;;;;;;;5.88;2.60;;;;;;;;;;10296978;28;20468;-62
2023/10/09 18:27:35;;;;;;;9.50;3.15;;;;;;;;;;10297209;28;20265;-63
2023/10/09 18:32:33;;;;;;;4.85;3.35;;;;;;;;;;10295055;28;20064;-63
2023/10/09 18:37:31;;;;;;;8.07;3.88;;;;;;;;;;10285512;28;20115;-62
2023/10/09 18:42:31;;;;;;;9.07;5.07;;;;;;;;;;10277045;28;20076;-63
2023/10/09 18:47:36;;;;;;;6.28;3.50;;;;;;;;;;10298818;28;20080;-62
2023/10/09 18:52:34;;;;;;;10.38;4.43;;;;;;;;;;10281794;28;20068;-63
2023/10/09 18:57:32;;;;;;;10.52;2.83;;;;;;;;;;10283988;28;20071;-63
2023/10/09 19:02:32;;;;;;;5.10;3.30;;;;;;;;;;10293914;28;20069;-63
2023/10/09 19:07:32;;;;;;;9.40;2.72;;;;;;;;;;10278260;28;20076;-63
2023/10/09 19:12:31;;;;;;;6.95;3.30;;;;;;;;;;10293087;28;20072;-64
2023/10/09 19:17:30;;;;;;;3.70;3.00;;;;;;;;;;10293556;28;20076;-64
2023/10/09 19:22:30;;;;;;;7.93;3.47;;;;;;;;;;10282280;28;20091;-61
2023/10/09 19:27:30;;;;;;;11.25;4.53;;;;;;;;;;10282480;28;20076;-62
2023/10/09 19:32:28;;;;;;;7.95;3.80;;;;;;;;;;10288048;28;20072;-63
2023/10/09 19:37:29;;;;;;;7.30;3.38;;;;;;;;;;10285698;28;20079;-63
2023/10/09 19:42:27;;;;;;;8.32;2.63;;;;;;;;;;10287904;28;20067;-63
2023/10/09 19:47:26;;;;;;;8.40;2.83;;;;;;;;;;10292090;28;20087;-64
2023/10/09 19:52:24;;;;;;;5.78;2.60;;;;;;;;;;10281115;28;20076;-63
2023/10/09 19:57:25;;;;;;;4.63;3.08;;;;;;;;;;10275246;28;20178;-63
2023/10/09 20:02:24;;;;;;;9.18;3.70;;;;;;;;;;10290126;28;20091;-62
2023/10/09 20:07:26;;;;;;;8.00;4.55;;;;;;;;;;10293118;28;20075;-62
2023/10/09 20:12:26;;;;;;;9.88;3.85;;;;;;;;;;10292282;28;20072;-62
2023/10/09 20:17:24;;;;;;;6.18;3.10;;;;;;;;;;10295004;28;20069;-64
2023/10/09 20:22:23;;;;;;;9.25;3.05;;;;;;;;;;10286286;28;20068;-62
2023/10/09 20:27:22;;;;;;;6.45;3.22;;;;;;;;;;10289235;28;20079;-63
2023/10/09 20:32:22;;;;;;;7.82;3.75;;;;;;;;;;10291067;28;20611;-63
2023/10/09 20:37:20;;;;;;;6.60;3.50;;;;;;;;;;10291231;28;20554;-63
2023/10/09 20:42:21;;;;;;;9.38;3.85;;;;;;;;;;10289418;28;20453;-64
2023/10/09 20:47:19;;;;;;;8.32;3.00;;;;;;;;;;10288048;28;20087;-63
2023/10/09 20:52:20;;;;;;;9.52;4.22;;;;;;;;;;10290052;28;20514;-63
2023/10/09 20:57:18;;;;;;;5.97;2.75;;;;;;;;;;10291821;28;20072;-63
2023/10/09 21:02:17;;;;;;;8.80;3.33;;;;;;;;;;10284712;28;20511;-63
2023/10/09 21:07:15;;;;;;;7.57;3.08;;;;;;;;;;10286786;28;20081;-63
2023/10/09 21:12:16;;;;;;;5.00;2.42;;;;;;;;;;10287083;28;20072;-63
2023/10/09 21:17:15;;;;;;;3.00;2.22;;;;;;;;;;10288767;28;20459;-63
2023/10/09 21:22:15;;;;;;;8.90;2.95;;;;;;;;;;10292206;28;20068;-63
2023/10/09 21:27:16;;;;;;;9.27;3.00;;;;;;;;;;10286006;28;20065;-62
2023/10/09 21:32:15;;;;;;;13.75;3.35;;;;;;;;;;10290228;28;20083;-63
2023/10/09 21:37:13;;;;;;;4.03;2.78;;;;;;;;;;10287239;28;20512;-63
2023/10/09 21:42:11;;;;;;;6.82;3.08;;;;;;;;;;10286992;28;20092;-63
2023/10/09 21:47:11;;;;;;;6.43;3.20;;;;;;;;;;10289254;28;20076;-63
2023/10/09 21:52:12;;;;;;;9.63;3.42;;;;;;;;;;10297177;28;20076;-63
2023/10/09 21:57:10;;;;;;;14.57;2.83;;;;;;;;;;10299030;28;20095;-64
2023/10/09 22:02:09;;;;;;;12.10;3.63;;;;;;;;;;10297402;28;20072;-64
2023/10/09 22:07:11;;;;;;;7.47;3.22;;;;;;;;;;10297256;28;20069;-63
2023/10/09 22:12:28;;;;;;;6.53;3.55;;;;;;;;;;10290942;28;20080;-64
2023/10/09 22:17:28;;;;;;;8.70;3.55;;;;;;;;;;10296286;28;20098;-64
2023/10/09 22:22:28;;;;;;;11.18;4.43;;;;;;;;;;10294129;28;20072;-64
2023/10/09 22:27:26;;;;;;;3.80;3.10;;;;;;;;;;10297258;28;20068;-64
2023/10/09 22:32:27;;;;;;;9.20;3.67;;;;;;;;;;10298575;28;20076;-64
2023/10/09 22:37:31;;;;;;;7.18;3.33;;;;;;;;;;10295395;28;20068;-64
2023/10/09 22:42:32;;;;;;;6.28;3.28;;;;;;;;;;10296599;28;20478;-64
2023/10/09 22:47:32;;;;;;;8.18;3.80;;;;;;;;;;10297056;28;20080;-64
2023/10/09 22:52:34;;;;;;;5.55;3.20;;;;;;;;;;10296793;28;20068;-64
2023/10/09 22:57:34;;;;;;;12.20;3.70;;;;;;;;;;10295568;28;20056;-64
2023/10/09 23:02:56;;;;;;;6.00;3.47;;;;;;;;;;10296576;28;20131;-64
2023/10/09 23:08:00;;;;;;;12.15;3.03;;;;;;;;;;10294400;28;20079;-64
2023/10/09 23:13:14;;;;;;;7.68;3.83;;;;;;;;;;10293526;28;20506;-64
2023/10/09 23:18:29;;;;;;;13.77;3.17;;;;;;;;;;10294933;28;20458;-63
2023/10/09 23:23:28;;;;;;;11.82;3.20;;;;;;;;;;10295794;28;20072;-64
2023/10/09 23:28:50;;;;;;;8.57;2.38;;;;;;;;;;10292281;28;20060;-63
2023/10/09 23:33:55;;;;;;;5.57;2.67;;;;;;;;;;10293863;28;20064;-64
2023/10/09 23:44:20;;;;;;;8.13;3.17;;;;;;;;;;10274041;28;20084;-63
2023/10/09 23:49:20;;;;;;;9.20;3.50;;;;;;;;;;10293716;28;20190;-63
2023/10/09 23:54:23;;;;;;;4.55;2.45;;;;;;;;;;10293563;28;20183;-63
2023/10/09 23:59:38;;;;;;;7.72;2.95;;;;;;;;;;10292146;28;20087;-63
